Time;durP1;ratioP1;P1;durP2;ratioP2;P2;SDS_P1;SDS_P2;PMS_P1;PMS_P2;Temp;Humidity;BMP_temperature;BMP_pressure;BME280_temperature;BME280_humidity;BME280_pressure;Samples;Min_cycle;Max_cycle;Signal;HPM_P1;HPM_P2
2022/04/28 00:00:42;;;;;;;7.35;6.15;;;6.80;76.80;;;;;;5114139;28;20216;-63
2022/04/28 00:03:09;;;;;;;7.78;6.10;;;6.80;76.90;;;;;;5114554;28;20192;-63
2022/04/28 00:05:37;;;;;;;7.78;5.93;;;6.70;76.70;;;;;;5114084;28;20267;-63
2022/04/28 00:08:05;;;;;;;6.85;5.63;;;6.70;76.60;;;;;;5114957;28;20224;-63
2022/04/28 00:10:34;;;;;;;7.97;6.32;;;6.70;77.10;;;;;;5113841;28;20200;-63
2022/04/28 00:13:01;;;;;;;7.25;5.40;;;6.70;77.10;;;;;;5114826;28;20200;-63
2022/04/28 00:15:29;;;;;;;9.02;6.85;;;6.70;76.40;;;;;;5113910;28;20190;-63
2022/04/28 00:17:56;;;;;;;7.55;6.03;;;6.60;76.70;;;;;;5114676;28;20283;-62
2022/04/28 00:20:23;;;;;;;8.88;6.05;;;6.60;76.10;;;;;;5113825;28;20208;-62
2022/04/28 00:22:50;;;;;;;9.55;6.88;;;6.50;76.10;;;;;;5114477;28;20231;-63
2022/04/28 00:25:17;;;;;;;12.77;7.13;;;6.50;77.30;;;;;;5113550;28;20187;-62
2022/04/28 00:27:45;;;;;;;9.10;6.65;;;6.50;78.00;;;;;;5113829;28;20184;-63
2022/04/28 00:30:12;;;;;;;11.57;7.32;;;6.50;77.10;;;;;;5113620;28;20189;-63
2022/04/28 00:32:39;;;;;;;7.85;6.28;;;6.50;77.90;;;;;;5114307;28;20194;-63
2022/04/28 00:35:06;;;;;;;7.38;5.93;;;6.40;77.50;;;;;;5113669;28;20184;-64
2022/04/28 00:37:34;;;;;;;8.70;6.80;;;6.40;78.40;;;;;;5114438;28;20194;-62
2022/04/28 00:40:01;;;;;;;8.10;5.85;;;6.40;78.90;;;;;;5113141;28;20630;-63
2022/04/28 00:42:29;;;;;;;10.00;7.38;;;6.30;78.30;;;;;;5114214;28;20189;-63
2022/04/28 00:44:57;;;;;;;11.35;6.80;;;6.30;78.50;;;;;;5112902;28;20284;-63
2022/04/28 00:50:38;;;;;;;7.38;5.30;;;6.30;78.40;;;;;;5114274;28;20302;-62
2022/04/28 00:52:57;;;;;;;6.93;5.68;;;6.20;78.50;;;;;;5114009;28;20615;-63
2022/04/28 00:55:24;;;;;;;7.55;5.32;;;6.20;78.60;;;;;;5112157;28;20191;-63
2022/04/28 00:57:52;;;;;;;7.97;6.25;;;6.10;77.90;;;;;;5113616;28;20295;-63
2022/04/28 01:00:21;;;;;;;9.40;6.22;;;6.10;78.40;;;;;;5112722;28;20271;-63
2022/04/28 01:02:48;;;;;;;8.07;5.75;;;6.10;78.80;;;;;;5113869;28;20188;-63
2022/04/28 01:05:15;;;;;;;9.25;6.40;;;6.10;79.10;;;;;;5112702;28;20712;-62
2022/04/28 01:07:42;;;;;;;9.05;5.68;;;6.00;78.10;;;;;;5112826;28;20184;-62
2022/04/28 01:10:09;;;;;;;9.38;7.07;;;5.90;78.40;;;;;;5113723;28;20188;-62
2022/04/28 01:12:37;;;;;;;9.00;7.18;;;5.90;78.80;;;;;;5112977;28;20220;-64
2022/04/28 01:15:05;;;;;;;8.98;6.95;;;5.90;79.00;;;;;;5093347;28;20290;-62
2022/04/28 01:17:33;;;;;;;7.97;6.38;;;6.00;78.60;;;;;;5092786;28;20193;-62
2022/04/28 01:20:00;;;;;;;7.05;6.00;;;5.90;77.80;;;;;;5112502;28;20180;-63
2022/04/28 01:22:28;;;;;;;10.07;6.18;;;5.90;77.80;;;;;;5113202;28;20212;-62
2022/04/28 01:24:56;;;;;;;6.55;4.95;;;5.90;76.60;;;;;;5112598;28;20222;-62
2022/04/28 01:27:26;;;;;;;6.80;5.57;;;5.80;76.40;;;;;;5113511;28;20180;-62
2022/04/28 01:29:53;;;;;;;8.68;6.15;;;5.80;76.90;;;;;;5112362;28;20176;-66
2022/04/28 01:32:20;;;;;;;6.20;4.55;;;5.70;77.10;;;;;;5112527;28;20270;-63
2022/04/28 01:34:46;;;;;;;5.65;4.65;;;5.80;77.30;;;;;;5112557;28;20267;-62
2022/04/28 01:37:13;;;;;;;7.03;5.13;;;5.70;75.90;;;;;;5113265;28;20188;-64
2022/04/28 01:39:41;;;;;;;7.30;5.60;;;5.70;75.80;;;;;;5110611;28;20196;-65
2022/04/28 01:42:09;;;;;;;7.90;6.28;;;5.60;76.40;;;;;;5113220;28;20222;-62
2022/04/28 01:44:36;;;;;;;7.70;5.80;;;5.50;77.50;;;;;;5112547;28;20191;-64
2022/04/28 01:47:03;;;;;;;7.00;5.93;;;5.30;78.40;;;;;;5112611;28;20220;-63
2022/04/28 01:49:30;;;;;;;7.88;5.80;;;5.20;78.20;;;;;;5110882;28;20600;-62
2022/04/28 01:55:01;;;;;;;8.13;6.28;;;5.20;78.70;;;;;;5112086;28;20199;-64
2022/04/28 01:57:29;;;;;;;7.65;5.75;;;5.20;79.20;;;;;;5112167;28;20191;-63
2022/04/28 01:59:56;;;;;;;8.32;7.07;;;5.20;79.90;;;;;;5112998;28;20188;-62
2022/04/28 02:02:23;;;;;;;9.98;6.95;;;5.30;80.40;;;;;;5112303;28;20230;-62
2022/04/28 02:04:50;;;;;;;11.25;7.90;;;5.30;80.40;;;;;;5112917;28;20622;-63
2022/04/28 02:07:17;;;;;;;11.95;7.78;;;5.40;80.90;;;;;;5111904;28;20188;-64
2022/04/28 02:09:46;;;;;;;8.90;6.30;;;5.40;81.50;;;;;;5092442;28;20185;-62
2022/04/28 02:12:13;;;;;;;8.20;6.70;;;5.40;81.30;;;;;;5092520;28;20196;-62
2022/04/28 02:14:41;;;;;;;10.38;6.10;;;5.30;80.70;;;;;;5111872;28;20611;-63
2022/04/28 02:17:08;;;;;;;8.13;6.15;;;5.30;80.30;;;;;;5112649;28;20215;-64
2022/04/28 02:19:35;;;;;;;6.78;5.70;;;5.20;79.60;;;;;;5111890;28;20198;-63
2022/04/28 02:22:03;;;;;;;6.88;5.82;;;5.20;79.30;;;;;;5112580;28;20223;-62
2022/04/28 02:24:30;;;;;;;7.10;5.95;;;5.20;78.80;;;;;;5111904;28;20271;-63
2022/04/28 02:26:58;;;;;;;7.47;5.65;;;5.10;79.10;;;;;;5112594;28;20193;-62
2022/04/28 02:29:25;;;;;;;7.85;5.82;;;5.00;79.10;;;;;;5113400;28;20202;-62
2022/04/28 02:31:52;;;;;;;7.85;6.15;;;5.00;79.50;;;;;;5116440;28;20227;-63
2022/04/28 02:34:19;;;;;;;8.07;6.68;;;5.00;79.70;;;;;;5115616;28;20271;-63
2022/04/28 02:36:46;;;;;;;8.30;5.97;;;5.00;79.70;;;;;;5116384;28;20185;-63
2022/04/28 02:39:14;;;;;;;7.10;5.68;;;4.90;80.00;;;;;;5115851;28;20193;-62
2022/04/28 02:41:41;;;;;;;12.45;9.15;;;4.90;80.00;;;;;;5116022;28;20251;-62
2022/04/28 02:44:10;;;;;;;10.93;6.78;;;4.90;79.90;;;;;;5115514;28;20190;-63
2022/04/28 02:46:37;;;;;;;8.43;7.07;;;4.90;80.20;;;;;;5116151;28;20215;-63
2022/04/28 02:49:05;;;;;;;8.18;6.63;;;4.80;80.90;;;;;;5114474;28;20267;-62
2022/04/28 02:51:32;;;;;;;8.73;6.15;;;4.90;81.30;;;;;;5115919;28;20192;-62
2022/04/28 02:53:59;;;;;;;11.80;8.20;;;4.90;81.00;;;;;;5115945;28;20189;-62
2022/04/28 02:56:25;;;;;;;10.45;7.68;;;4.80;80.70;;;;;;5115022;28;20291;-62
2022/04/28 02:58:53;;;;;;;9.05;6.90;;;4.80;81.40;;;;;;5115790;28;20188;-63
2022/04/28 03:01:22;;;;;;;9.68;7.72;;;4.70;80.90;;;;;;5114992;28;20223;-62
2022/04/28 03:03:49;;;;;;;7.15;6.07;;;4.80;81.30;;;;;;5115938;28;20184;-63
2022/04/28 03:11:44;;;;;;;9.35;7.35;;;4.80;81.40;;;;;;5115005;28;20195;-63
2022/04/28 03:14:12;;;;;;;10.18;7.43;;;4.70;82.20;;;;;;5115625;28;20195;-62
2022/04/28 03:16:40;;;;;;;9.55;6.90;;;4.70;82.60;;;;;;5114929;28;20207;-64
2022/04/28 03:19:07;;;;;;;9.68;7.53;;;4.60;83.00;;;;;;5115421;28;20188;-62
2022/04/28 03:21:34;;;;;;;7.05;5.75;;;4.60;82.60;;;;;;5114617;28;20312;-62
2022/04/28 03:24:01;;;;;;;8.85;7.00;;;4.60;82.50;;;;;;5115783;27;20184;-62
2022/04/28 03:26:29;;;;;;;9.15;6.80;;;4.60;82.10;;;;;;5114113;28;20180;-64
2022/04/28 03:28:56;;;;;;;9.88;8.35;;;4.60;81.60;;;;;;5115448;28;20638;-62
2022/04/28 03:31:23;;;;;;;11.02;7.28;;;4.60;81.70;;;;;;5114811;28;20544;-62
2022/04/28 03:33:52;;;;;;;9.05;7.03;;;4.60;80.40;;;;;;5115270;28;20283;-62
2022/04/28 03:39:04;;;;;;;7.35;5.95;;;4.60;80.00;;;;;;5115343;28;20215;-62
2022/04/28 03:41:31;;;;;;;9.52;7.50;;;4.60;80.40;;;;;;5114144;28;20661;-63
2022/04/28 03:43:58;;;;;;;10.32;6.63;;;4.60;80.70;;;;;;5115183;28;20293;-63
2022/04/28 03:46:25;;;;;;;7.90;6.35;;;4.60;80.50;;;;;;5113968;28;20721;-62
2022/04/28 03:48:53;;;;;;;10.18;8.02;;;4.50;80.70;;;;;;5114987;28;20180;-62
2022/04/28 03:51:20;;;;;;;10.45;8.20;;;4.50;80.80;;;;;;5114087;28;20200;-63
2022/04/28 03:53:47;;;;;;;9.35;7.05;;;4.40;81.20;;;;;;5114741;28;20287;-63
2022/04/28 03:56:13;;;;;;;9.23;7.60;;;4.40;81.80;;;;;;5113759;27;20200;-62
2022/04/28 03:58:40;;;;;;;9.38;7.47;;;4.50;82.40;;;;;;5114579;28;20184;-61
2022/04/28 04:01:07;;;;;;;10.98;7.50;;;4.40;82.30;;;;;;5113887;28;20271;-63
2022/04/28 04:03:34;;;;;;;9.77;7.20;;;4.40;82.20;;;;;;5115104;28;20192;-62
2022/04/28 04:06:02;;;;;;;12.05;9.48;;;4.40;81.90;;;;;;5114198;28;20534;-63
2022/04/28 04:08:29;;;;;;;11.50;9.63;;;4.40;82.20;;;;;;5114520;28;20229;-63
2022/04/28 04:10:56;;;;;;;11.50;8.98;;;4.40;82.80;;;;;;5093758;28;20220;-62
2022/04/28 04:13:23;;;;;;;9.45;7.15;;;4.40;82.70;;;;;;5094284;28;20189;-62
2022/04/28 04:15:50;;;;;;;8.93;6.53;;;4.40;82.60;;;;;;5113227;28;20276;-63
2022/04/28 04:18:18;;;;;;;10.18;7.72;;;4.40;81.80;;;;;;5114601;28;20193;-62
2022/04/28 04:20:45;;;;;;;9.52;7.43;;;4.40;80.10;;;;;;5113862;28;20189;-63
2022/04/28 04:23:13;;;;;;;10.88;7.82;;;4.40;80.30;;;;;;5114369;28;20212;-63
2022/04/28 04:25:40;;;;;;;11.10;8.27;;;4.40;80.70;;;;;;5113941;28;20184;-62
2022/04/28 04:28:07;;;;;;;9.82;7.65;;;4.30;80.60;;;;;;5114291;28;20602;-62
2022/04/28 04:33:19;;;;;;;10.80;8.25;;;4.40;81.20;;;;;;5113439;28;20188;-62
2022/04/28 04:35:46;;;;;;;10.73;8.20;;;4.30;80.80;;;;;;5112916;28;20261;-62
2022/04/28 04:38:14;;;;;;;18.38;11.82;;;4.30;80.80;;;;;;5113605;28;20189;-63
2022/04/28 04:40:41;;;;;;;19.48;11.73;;;4.30;82.00;;;;;;5113895;28;20285;-62
2022/04/28 04:43:13;;;;;;;13.77;10.07;;;4.40;82.80;;;;;;5112962;28;20216;-62
2022/04/28 04:45:42;;;;;;;14.13;8.73;;;4.40;82.90;;;;;;5113947;28;20193;-63
2022/04/28 04:48:09;;;;;;;13.75;9.35;;;4.40;82.80;;;;;;5113371;28;20188;-64
2022/04/28 04:50:36;;;;;;;12.93;9.25;;;4.50;82.40;;;;;;5113957;28;20188;-62
2022/04/28 04:53:04;;;;;;;11.65;8.25;;;4.50;81.20;;;;;;5113229;28;20191;-62
2022/04/28 04:55:32;;;;;;;11.98;8.98;;;4.50;81.30;;;;;;5113200;28;20195;-62
2022/04/28 04:57:59;;;;;;;10.32;7.88;;;4.50;81.70;;;;;;5112920;28;20263;-62
2022/04/28 05:00:26;;;;;;;12.63;8.57;;;4.50;81.60;;;;;;5113626;28;20605;-62
2022/04/28 05:02:53;;;;;;;12.15;9.40;;;4.50;82.10;;;;;;5113165;28;20218;-62
2022/04/28 05:05:20;;;;;;;10.02;8.30;;;4.50;82.60;;;;;;5113874;28;20220;-61
2022/04/28 05:07:47;;;;;;;11.23;7.55;;;4.60;83.90;;;;;;5113022;28;20216;-62
2022/04/28 05:10:14;;;;;;;10.25;8.27;;;4.60;84.20;;;;;;5108947;28;20204;-62
2022/04/28 05:12:42;;;;;;;8.35;7.45;;;4.80;84.50;;;;;;5110987;28;20748;-62
2022/04/28 05:15:10;;;;;;;11.55;8.60;;;4.80;84.30;;;;;;5111962;28;20193;-62
2022/04/28 05:17:37;;;;;;;12.55;10.23;;;4.90;84.30;;;;;;5111029;28;20188;-67
2022/04/28 05:20:05;;;;;;;13.80;8.48;;;5.00;84.70;;;;;;5108577;28;20638;-62
2022/04/28 05:22:31;;;;;;;11.38;8.80;;;5.10;84.10;;;;;;5109486;28;20212;-63
2022/04/28 05:24:58;;;;;;;12.27;9.65;;;5.20;83.00;;;;;;5110979;28;20188;-63
2022/04/28 05:27:25;;;;;;;13.07;9.30;;;5.20;83.40;;;;;;5111407;28;20599;-63
2022/04/28 05:29:54;;;;;;;9.48;8.18;;;5.30;83.30;;;;;;5109544;28;20212;-62
2022/04/28 05:32:20;;;;;;;10.85;9.48;;;5.30;82.90;;;;;;5111537;28;20286;-63
2022/04/28 05:34:47;;;;;;;13.18;10.60;;;5.40;83.20;;;;;;5105274;28;20700;-63
2022/04/28 05:37:15;;;;;;;13.25;10.32;;;5.50;83.40;;;;;;5110840;28;20670;-62
2022/04/28 05:39:43;;;;;;;14.30;10.77;;;5.60;83.20;;;;;;5109399;28;20188;-63
2022/04/28 05:42:10;;;;;;;11.75;9.50;;;5.70;83.20;;;;;;5110685;28;20215;-63
2022/04/28 05:47:24;;;;;;;13.18;10.75;;;5.90;85.00;;;;;;5060137;28;20695;-63
2022/04/28 05:49:51;;;;;;;12.18;9.68;;;6.00;85.40;;;;;;5051652;28;20232;-64
2022/04/28 05:52:18;;;;;;;13.85;9.75;;;6.10;85.80;;;;;;5046348;28;20210;-64
2022/04/28 05:54:45;;;;;;;15.68;10.77;;;6.10;85.50;;;;;;5041087;28;20323;-63
2022/04/28 05:57:12;;;;;;;12.77;10.68;;;6.20;85.80;;;;;;5058223;28;20186;-63
2022/04/28 05:59:39;;;;;;;15.07;10.88;;;6.30;87.00;;;;;;5039702;28;20562;-64
2022/04/28 06:02:07;;;;;;;14.00;11.95;;;6.50;87.80;;;;;;5078667;28;20204;-63
2022/04/28 06:04:35;;;;;;;14.95;10.95;;;6.60;88.50;;;;;;5060595;28;20306;-62
2022/04/28 06:07:02;;;;;;;15.73;12.55;;;6.80;88.90;;;;;;5083821;28;20189;-65
2022/04/28 06:09:29;;;;;;;15.25;13.45;;;6.90;88.90;;;;;;5068666;28;20636;-63
2022/04/28 06:11:56;;;;;;;12.45;11.15;;;7.10;89.40;;;;;;5085644;28;20288;-65
2022/04/28 06:14:23;;;;;;;11.63;9.98;;;7.20;89.00;;;;;;5070229;28;20281;-64
2022/04/28 06:16:50;;;;;;;11.85;9.95;;;7.30;88.70;;;;;;5074618;28;20274;-63
2022/04/28 06:19:19;;;;;;;11.00;9.60;;;7.40;88.80;;;;;;5068899;28;20221;-65
2022/04/28 06:21:48;;;;;;;15.20;10.48;;;7.60;88.50;;;;;;5075086;28;20412;-64
2022/04/28 06:24:15;;;;;;;11.95;10.30;;;7.80;88.00;;;;;;5067757;28;20258;-66
2022/04/28 06:26:41;;;;;;;11.30;9.15;;;8.00;87.80;;;;;;5074549;28;20220;-63
2022/04/28 06:29:08;;;;;;;12.07;8.90;;;8.10;87.20;;;;;;5070380;28;20193;-64
2022/04/28 06:31:35;;;;;;;11.35;8.60;;;8.30;87.10;;;;;;5074326;28;20319;-64
2022/04/28 06:34:02;;;;;;;11.15;9.43;;;8.40;87.00;;;;;;5068879;28;20292;-64
2022/04/28 06:36:29;;;;;;;10.63;7.65;;;8.60;86.90;;;;;;5072370;28;20319;-65
2022/04/28 06:38:57;;;;;;;14.45;8.85;;;8.80;86.70;;;;;;5070826;28;20662;-63
2022/04/28 06:41:24;;;;;;;11.32;9.40;;;8.90;86.20;;;;;;5070500;28;20581;-63
2022/04/28 06:43:51;;;;;;;8.60;7.63;;;9.10;85.70;;;;;;5075363;28;20771;-63
2022/04/28 06:46:18;;;;;;;8.80;7.90;;;9.20;86.00;;;;;;5068095;28;20775;-63
2022/04/28 06:48:47;;;;;;;12.13;8.88;;;9.30;84.40;;;;;;5075296;28;20619;-63
2022/04/28 06:51:14;;;;;;;9.15;8.02;;;9.40;84.30;;;;;;5075045;28;20264;-63
2022/04/28 06:53:42;;;;;;;8.93;7.68;;;9.60;84.60;;;;;;5075899;28;20540;-63
2022/04/28 06:56:10;;;;;;;10.15;8.07;;;9.80;84.20;;;;;;5075582;28;20193;-64
2022/04/28 06:58:37;;;;;;;8.93;7.63;;;10.00;82.90;;;;;;5075393;28;20654;-63
2022/04/28 07:01:04;;;;;;;8.90;6.97;;;10.10;82.40;;;;;;5075744;28;20200;-63
2022/04/28 07:03:32;;;;;;;7.40;6.65;;;10.30;81.70;;;;;;5075943;28;20584;-62
2022/04/28 07:05:59;;;;;;;8.07;7.28;;;10.40;81.20;;;;;;5075722;28;20186;-62
2022/04/28 07:08:26;;;;;;;9.05;7.45;;;10.60;80.50;;;;;;5075706;28;20230;-63
2022/04/28 07:10:53;;;;;;;9.93;6.57;;;10.70;79.80;;;;;;5075647;28;20243;-62
2022/04/28 07:13:21;;;;;;;7.75;6.90;;;10.90;79.40;;;;;;5075680;28;20192;-63
2022/04/28 07:15:48;;;;;;;9.95;7.07;;;11.10;79.40;;;;;;5067407;28;20196;-63
2022/04/28 07:18:15;;;;;;;8.48;6.38;;;11.30;79.30;;;;;;5074545;28;20207;-63
2022/04/28 07:20:44;;;;;;;8.15;6.63;;;11.40;79.20;;;;;;5074212;28;20193;-63
2022/04/28 07:23:11;;;;;;;8.48;7.43;;;11.60;78.80;;;;;;5074644;28;20225;-63
2022/04/28 07:25:38;;;;;;;11.90;7.50;;;11.70;78.50;;;;;;5073930;28;20222;-65
2022/04/28 07:28:06;;;;;;;9.00;8.10;;;11.90;78.40;;;;;;5074204;28;20224;-63
2022/04/28 07:30:34;;;;;;;12.18;9.10;;;12.10;78.30;;;;;;5073888;28;20229;-62
2022/04/28 07:33:01;;;;;;;12.25;9.95;;;12.30;78.20;;;;;;5074001;28;20200;-65
2022/04/28 07:35:28;;;;;;;8.60;7.67;;;12.50;77.50;;;;;;5074205;28;20285;-63
2022/04/28 07:37:55;;;;;;;10.70;9.60;;;12.60;76.30;;;;;;5074142;28;20448;-63
2022/04/28 07:40:21;;;;;;;10.97;9.50;;;12.80;76.30;;;;;;5073792;28;20532;-63
2022/04/28 07:42:48;;;;;;;10.33;8.87;;;12.90;74.90;;;;;;5073215;28;21078;-63
2022/04/28 07:45:15;;;;;;;9.60;8.60;;;13.20;75.70;;;;;;5074123;28;20539;-63
2022/04/28 07:47:43;;;;;;;11.30;8.37;;;13.40;74.90;;;;;;5073831;28;20570;-63
2022/04/28 07:50:11;;;;;;;9.57;8.23;;;13.50;73.80;;;;;;5073587;28;20439;-63
2022/04/28 07:52:38;;;;;;;12.90;8.87;;;13.70;72.90;;;;;;5074108;28;20446;-63
2022/04/28 07:55:06;;;;;;;8.67;7.77;;;13.90;71.50;;;;;;5074116;28;20452;-63
2022/04/28 07:57:33;;;;;;;10.27;8.27;;;14.10;70.70;;;;;;5073990;28;20531;-63
2022/04/28 08:00:00;;;;;;;10.87;9.00;;;14.20;69.90;;;;;;5073431;28;20536;-63
2022/04/28 08:02:29;;;;;;;9.27;7.30;;;14.40;69.20;;;;;;5073679;28;20433;-63
2022/04/28 08:04:57;;;;;;;10.90;7.90;;;14.50;68.30;;;;;;5073612;28;20830;-63
2022/04/28 08:07:24;;;;;;;9.07;8.17;;;14.60;64.90;;;;;;5073705;28;20452;-63
2022/04/28 08:09:51;;;;;;;7.47;6.67;;;14.80;65.80;;;;;;5070147;28;20472;-63
2022/04/28 08:12:18;;;;;;;8.20;7.30;;;15.00;65.40;;;;;;5073462;28;20447;-63
2022/04/28 08:14:45;;;;;;;11.70;7.17;;;15.20;66.10;;;;;;5072625;28;20539;-63
2022/04/28 08:17:12;;;;;;;7.73;5.10;;;15.40;65.50;;;;;;5072819;28;20526;-63
2022/04/28 08:19:39;;;;;;;5.90;5.10;;;15.60;57.00;;;;;;5073051;28;20482;-64
2022/04/28 08:22:07;;;;;;;5.77;4.77;;;15.90;53.40;;;;;;5073370;28;20463;-63
2022/04/28 08:24:34;;;;;;;5.60;4.53;;;15.90;52.30;;;;;;5073218;28;20509;-63
2022/04/28 08:27:01;;;;;;;6.23;4.60;;;16.00;51.10;;;;;;5072265;28;20523;-63
2022/04/28 08:29:28;;;;;;;5.17;4.63;;;16.10;51.30;;;;;;5070598;28;20523;-63
2022/04/28 08:31:55;;;;;;;4.60;3.93;;;16.20;50.70;;;;;;5072656;28;20436;-63
2022/04/28 08:34:22;;;;;;;10.50;4.60;;;16.40;51.00;;;;;;5072980;28;20494;-63
2022/04/28 08:36:50;;;;;;;7.37;5.17;;;16.50;50.60;;;;;;5073177;28;20444;-64
2022/04/28 08:39:19;;;;;;;4.83;4.10;;;16.60;49.00;;;;;;5072274;28;20472;-63
2022/04/28 08:41:46;;;;;;;6.47;3.10;;;16.80;49.00;;;;;;5072215;28;20466;-63
2022/04/28 08:44:17;;;;;;;5.63;3.30;;;17.00;40.80;;;;;;5071942;28;20578;-63
2022/04/28 08:46:54;;;;;;;5.20;3.77;;;17.00;43.30;;;;;;5072522;28;20472;-63
2022/04/28 08:49:23;;;;;;;4.53;2.90;;;17.20;41.10;;;;;;5072703;28;20444;-63
2022/04/28 08:51:52;;;;;;;4.73;3.13;;;17.30;41.80;;;;;;5072217;28;20444;-63
2022/04/28 08:54:22;;;;;;;4.60;3.50;;;17.40;39.50;;;;;;5072676;28;20440;-63
2022/04/28 08:56:50;;;;;;;5.87;3.30;;;17.40;40.60;;;;;;5072454;28;20794;-64
2022/04/28 08:59:17;;;;;;;4.40;3.30;;;17.50;40.20;;;;;;5072211;28;20435;-63
2022/04/28 09:01:44;;;;;;;7.80;3.23;;;17.50;37.80;;;;;;5072934;28;20440;-63
2022/04/28 09:04:11;;;;;;;5.20;3.07;;;17.50;38.30;;;;;;5072618;28;20476;-64
2022/04/28 09:06:40;;;;;;;4.10;3.03;;;17.60;36.10;;;;;;5072513;28;20781;-63
2022/04/28 09:09:09;;;;;;;5.40;3.77;;;17.70;37.70;;;;;;5072900;28;20436;-64
2022/04/28 09:11:40;;;;;;;4.00;2.87;;;17.80;38.60;;;;;;5072430;28;20436;-63
2022/04/28 09:14:13;;;;;;;3.83;2.67;;;17.80;39.00;;;;;;5072610;28;20499;-64
2022/04/28 09:16:43;;;;;;;3.87;2.70;;;17.80;39.00;;;;;;5068926;28;20497;-64
2022/04/28 09:19:11;;;;;;;2.90;2.33;;;17.90;36.60;;;;;;5071780;28;20532;-64
2022/04/28 09:21:40;;;;;;;3.10;2.30;;;18.00;35.90;;;;;;5072375;28;20462;-64
2022/04/28 09:24:09;;;;;;;4.37;2.87;;;18.20;35.20;;;;;;5071243;28;20494;-64
2022/04/28 09:26:38;;;;;;;3.30;2.37;;;18.40;34.70;;;;;;5072591;28;20790;-64
2022/04/28 09:29:06;;;;;;;3.87;1.87;;;18.40;35.70;;;;;;5071851;28;20916;-63
2022/04/28 09:31:37;;;;;;;5.30;2.37;;;18.40;35.50;;;;;;5071754;28;20444;-63
2022/04/28 09:34:09;;;;;;;3.27;2.40;;;18.30;34.60;;;;;;5072372;28;20539;-63
2022/04/28 09:36:36;;;;;;;4.93;2.30;;;18.20;33.20;;;;;;5072025;28;20902;-62
2022/04/28 09:39:04;;;;;;;3.17;2.30;;;18.10;35.50;;;;;;5071727;28;20973;-64
2022/04/28 09:44:19;;;;;;;3.60;2.23;;;18.30;32.90;;;;;;5071725;28;20502;-63
2022/04/28 09:46:47;;;;;;;3.23;2.20;;;18.40;33.10;;;;;;5070746;28;20463;-64
2022/04/28 09:49:17;;;;;;;2.97;2.20;;;18.40;30.80;;;;;;5051630;28;20453;-63
2022/04/28 09:51:45;;;;;;;3.50;2.60;;;18.50;32.00;;;;;;5050580;28;20910;-63
2022/04/28 09:54:13;;;;;;;4.40;2.23;;;18.50;32.30;;;;;;5051316;28;20540;-63
2022/04/28 09:56:42;;;;;;;2.90;2.00;;;18.60;31.60;;;;;;5051733;28;20523;-64
2022/04/28 09:59:12;;;;;;;2.63;1.80;;;18.40;32.60;;;;;;5051262;28;20441;-64
2022/04/28 10:01:41;;;;;;;3.40;2.50;;;18.50;31.50;;;;;;5051562;28;20464;-63
2022/04/28 10:04:09;;;;;;;4.53;2.20;;;18.60;31.10;;;;;;5051681;28;20567;-64
2022/04/28 10:06:36;;;;;;;3.37;2.27;;;18.60;30.00;;;;;;5051455;28;20437;-63
2022/04/28 10:09:12;;;;;;;3.50;2.17;;;18.80;29.60;;;;;;5051454;28;20445;-63
2022/04/28 10:11:39;;;;;;;3.23;2.40;;;18.90;32.00;;;;;;5051388;28;20949;-64
2022/04/28 10:14:06;;;;;;;3.23;1.87;;;18.90;30.60;;;;;;5051825;28;20440;-63
2022/04/28 10:16:35;;;;;;;3.40;2.20;;;18.90;30.10;;;;;;5051916;28;20447;-63
2022/04/28 10:19:10;;;;;;;3.50;1.70;;;19.00;30.60;;;;;;5052629;28;20437;-63
2022/04/28 10:21:41;;;;;;;3.87;3.13;;;19.00;30.00;;;;;;5052811;28;20922;-64
2022/04/28 10:32:54;;;;;;;4.80;1.87;;;19.40;27.60;;;;;;5052756;28;21054;-63
2022/04/28 10:35:38;;;;;;;3.67;2.60;;;19.50;28.10;;;;;;5052617;28;20432;-63
2022/04/28 10:38:14;;;;;;;5.20;1.70;;;19.60;27.70;;;;;;5052819;28;20441;-63
2022/04/28 10:40:42;;;;;;;2.80;2.10;;;19.60;28.50;;;;;;5052699;28;20498;-63
2022/04/28 10:43:21;;;;;;;3.30;2.10;;;19.60;28.00;;;;;;5051799;28;20924;-63
2022/04/28 10:45:49;;;;;;;3.00;1.80;;;19.60;28.60;;;;;;5051680;28;20627;-63
2022/04/28 10:48:25;;;;;;;2.90;1.87;;;19.60;28.00;;;;;;5052441;28;20437;-63
2022/04/28 10:51:22;;;;;;;2.80;1.80;;;19.80;27.80;;;;;;5055220;28;20432;-63
2022/04/28 10:54:05;;;;;;;4.07;2.57;;;20.00;28.00;;;;;;5056232;28;20968;-64
2022/04/28 10:56:54;;;;;;;4.10;2.43;;;20.00;27.80;;;;;;5055884;28;20944;-63
2022/04/28 10:59:34;;;;;;;3.30;1.97;;;20.10;28.60;;;;;;5055775;28;20449;-64
2022/04/28 11:02:32;;;;;;;2.70;1.60;;;20.20;27.20;;;;;;5055479;28;20468;-63
2022/04/28 11:05:03;;;;;;;2.33;1.53;;;20.20;27.10;;;;;;5054437;28;20491;-63
2022/04/28 11:07:32;;;;;;;3.47;2.20;;;20.20;27.20;;;;;;5055868;28;20440;-63
2022/04/28 11:10:01;;;;;;;3.30;2.03;;;20.20;27.70;;;;;;5055598;28;20492;-62
2022/04/28 11:12:35;;;;;;;2.70;1.90;;;20.10;27.90;;;;;;5052172;28;20457;-63
2022/04/28 11:15:05;;;;;;;4.07;2.57;;;20.10;27.30;;;;;;5055221;28;20925;-63
2022/04/28 11:17:35;;;;;;;4.00;1.93;;;20.00;28.60;;;;;;5055287;28;20444;-63
2022/04/28 11:20:07;;;;;;;3.37;2.23;;;20.20;29.10;;;;;;5055304;28;20431;-63
2022/04/28 11:22:35;;;;;;;3.00;2.13;;;20.10;26.80;;;;;;5054951;28;20524;-63
2022/04/28 11:25:10;;;;;;;4.53;2.40;;;20.20;28.00;;;;;;5054270;28;20508;-63
2022/04/28 11:27:38;;;;;;;4.87;3.00;;;20.40;26.40;;;;;;5054968;28;20451;-65
2022/04/28 11:30:06;;;;;;;5.17;2.57;;;20.50;26.30;;;;;;5051906;28;20471;-63
2022/04/28 11:32:33;;;;;;;4.07;1.93;;;20.60;27.80;;;;;;5054618;28;20528;-63
2022/04/28 11:35:00;;;;;;;3.20;1.90;;;20.60;27.60;;;;;;5054138;28;20451;-64
2022/04/28 11:37:28;;;;;;;5.17;2.57;;;20.70;25.20;;;;;;5054772;28;20433;-63
2022/04/28 11:39:58;;;;;;;4.57;2.20;;;20.70;25.70;;;;;;5054865;28;20437;-63
2022/04/28 11:42:26;;;;;;;4.33;2.27;;;20.60;27.10;;;;;;5054472;28;20453;-63
2022/04/28 11:44:54;;;;;;;3.50;2.30;;;20.60;27.70;;;;;;5054594;28;20567;-63
2022/04/28 11:47:22;;;;;;;3.90;2.00;;;20.70;28.40;;;;;;5054048;28;20491;-63
2022/04/28 11:49:50;;;;;;;3.53;2.40;;;20.80;29.10;;;;;;5054682;28;20445;-63
2022/04/28 11:52:20;;;;;;;2.90;2.00;;;20.90;27.30;;;;;;5054543;28;20503;-63
2022/04/28 11:54:50;;;;;;;4.90;2.43;;;20.80;27.40;;;;;;5054475;28;20503;-63
2022/04/28 11:57:21;;;;;;;3.83;2.10;;;20.50;25.90;;;;;;5054468;28;20540;-63
2022/04/28 11:59:48;;;;;;;4.30;2.33;;;20.50;25.10;;;;;;5054989;28;20440;-68
2022/04/28 12:02:29;;;;;;;3.83;2.67;;;20.50;26.80;;;;;;5054827;28;20447;-63
2022/04/28 12:04:56;;;;;;;6.73;2.63;;;20.40;25.90;;;;;;5054825;28;20503;-63
2022/04/28 12:07:27;;;;;;;3.80;2.43;;;20.40;27.30;;;;;;5054863;28;20440;-63
2022/04/28 12:15:25;;;;;;;3.13;2.30;;;20.50;27.50;;;;;;5054930;28;20906;-62
2022/04/28 12:20:52;;;;;;;6.43;2.33;;;20.60;27.90;;;;;;5054742;28;20447;-63
2022/04/28 12:23:32;;;;;;;3.33;2.33;;;20.60;25.70;;;;;;5054524;28;20777;-63
2022/04/28 12:26:00;;;;;;;4.30;2.00;;;20.50;26.80;;;;;;5054128;28;20441;-63
2022/04/28 12:28:32;;;;;;;5.10;1.90;;;20.50;28.40;;;;;;5054267;28;20947;-63
2022/04/28 12:31:02;;;;;;;3.03;2.20;;;20.50;26.90;;;;;;5054426;28;20523;-62
2022/04/28 12:33:29;;;;;;;4.10;1.90;;;20.40;27.40;;;;;;5054276;28;20437;-62
2022/04/28 12:35:59;;;;;;;5.73;1.97;;;20.30;27.60;;;;;;5053942;28;20437;-63
2022/04/28 12:38:28;;;;;;;2.80;2.20;;;20.30;27.40;;;;;;5054338;28;20444;-63
2022/04/28 12:40:55;;;;;;;5.63;2.87;;;20.40;28.00;;;;;;5054190;28;20536;-63
2022/04/28 12:43:41;;;;;;;4.63;2.10;;;20.30;26.60;;;;;;5053811;28;20437;-63
2022/04/28 12:46:08;;;;;;;3.33;2.37;;;20.30;27.90;;;;;;5054135;28;20465;-63
2022/04/28 12:48:37;;;;;;;6.50;2.80;;;20.40;29.50;;;;;;5054085;28;20436;-62
2022/04/28 12:51:22;;;;;;;4.90;3.00;;;20.50;29.60;;;;;;5053974;28;20444;-62
2022/04/28 12:53:51;;;;;;;4.97;3.53;;;20.50;28.40;;;;;;5053962;28;20472;-63
2022/04/28 12:56:27;;;;;;;4.67;3.07;;;20.50;29.80;;;;;;5053987;28;20441;-63
2022/04/28 12:58:58;;;;;;;4.17;2.77;;;20.40;29.00;;;;;;5053529;28;20448;-63
2022/04/28 13:01:26;;;;;;;3.77;2.43;;;20.30;30.20;;;;;;5053643;28;20437;-63
2022/04/28 13:03:56;;;;;;;4.00;2.93;;;20.40;30.50;;;;;;5053534;28;20532;-63
2022/04/28 13:06:23;;;;;;;7.00;3.20;;;20.40;30.30;;;;;;5053533;28;20511;-63
2022/04/28 13:08:51;;;;;;;3.53;3.00;;;20.40;30.00;;;;;;5053726;28;20528;-63
2022/04/28 13:11:19;;;;;;;6.33;3.13;;;20.50;29.50;;;;;;5053514;28;20433;-63
2022/04/28 13:13:46;;;;;;;5.90;2.77;;;20.50;29.60;;;;;;5052902;28;20567;-63
2022/04/28 13:16:15;;;;;;;4.90;2.90;;;20.60;30.40;;;;;;5053670;28;20751;-63
2022/04/28 13:18:42;;;;;;;3.97;2.60;;;20.60;30.40;;;;;;5053304;28;20524;-63
2022/04/28 13:21:10;;;;;;;3.73;2.53;;;20.60;29.40;;;;;;5053235;28;20447;-63
2022/04/28 13:23:37;;;;;;;3.60;2.63;;;20.60;28.90;;;;;;5053183;28;20448;-64
2022/04/28 13:26:05;;;;;;;5.30;3.13;;;20.60;30.30;;;;;;5053107;28;20485;-62
2022/04/28 13:28:32;;;;;;;4.80;3.20;;;20.60;28.70;;;;;;5053418;28;20525;-63
2022/04/28 13:30:59;;;;;;;4.60;2.60;;;20.40;29.60;;;;;;5053408;28;20524;-63
2022/04/28 13:33:27;;;;;;;5.70;3.47;;;20.40;30.20;;;;;;5053307;28;20472;-63